Time;durP1;ratioP1;P1;durP2;ratioP2;P2;SDS_P1;SDS_P2;PMS_P1;PMS_P2;Temp;Humidity;BMP_temperature;BMP_pressure;BME280_temperature;BME280_humidity;BME280_pressure;Samples;Min_cycle;Max_cycle;Signal;HPM_P1;HPM_P2
2021/12/27 00:01:03;;;;;;;16.48;9.60;;;;;;;;;;5087799;28;20039;-60
2021/12/27 00:03:29;;;;;;;18.85;10.30;;;;;;;;;;5087686;28;20390;-60
2021/12/27 00:05:55;;;;;;;18.63;9.73;;;;;;;;;;5085805;28;20335;-60
2021/12/27 00:08:23;;;;;;;19.25;10.85;;;;;;;;;;5086188;28;20044;-61
2021/12/27 00:10:49;;;;;;;19.27;10.90;;;;;;;;;;5085497;28;20048;-61
2021/12/27 00:13:15;;;;;;;17.90;10.05;;;;;;;;;;5088372;28;20074;-61
2021/12/27 00:15:44;;;;;;;19.02;10.63;;;;;;;;;;5089011;28;20410;-61
2021/12/27 00:18:10;;;;;;;18.67;10.63;;;;;;;;;;5090671;28;20123;-59
2021/12/27 00:20:36;;;;;;;18.67;10.63;;;;;;;;;;5092062;28;20538;-60
2021/12/27 00:23:02;;;;;;;19.02;10.82;;;;;;;;;;5091321;28;20063;-60
2021/12/27 00:25:29;;;;;;;19.00;10.52;;;;;;;;;;5090584;28;20093;-60
2021/12/27 00:27:55;;;;;;;18.58;10.18;;;;;;;;;;5092409;28;20040;-61
2021/12/27 00:30:22;;;;;;;19.52;10.40;;;;;;;;;;5090618;28;20044;-61
2021/12/27 00:32:48;;;;;;;19.35;11.15;;;;;;;;;;5092360;28;20044;-60
2021/12/27 00:35:15;;;;;;;18.60;10.13;;;;;;;;;;5091117;28;20507;-61
2021/12/27 00:37:41;;;;;;;19.63;11.32;;;;;;;;;;5091135;28;20036;-60
2021/12/27 00:40:08;;;;;;;19.35;10.77;;;;;;;;;;5092481;28;20359;-61
2021/12/27 00:42:34;;;;;;;19.40;10.82;;;;;;;;;;5091305;28;20498;-61
2021/12/27 00:45:00;;;;;;;17.63;10.73;;;;;;;;;;5091133;28;20032;-60
2021/12/27 00:47:26;;;;;;;20.02;11.27;;;;;;;;;;5093081;28;20514;-60
2021/12/27 00:49:52;;;;;;;20.35;11.32;;;;;;;;;;5090371;28;20127;-59
2021/12/27 00:52:18;;;;;;;18.83;10.70;;;;;;;;;;5091758;28;20036;-60
2021/12/27 00:54:44;;;;;;;20.90;11.05;;;;;;;;;;5092652;28;20119;-61
2021/12/27 00:57:10;;;;;;;21.02;11.23;;;;;;;;;;5088941;28;20164;-60
2021/12/27 00:59:36;;;;;;;20.83;11.43;;;;;;;;;;5091812;28;20075;-61
2021/12/27 01:02:02;;;;;;;20.83;11.43;;;;;;;;;;5091269;28;20063;-59
2021/12/27 01:04:28;;;;;;;16.95;10.40;;;;;;;;;;5090875;28;20044;-61
2021/12/27 01:06:54;;;;;;;19.92;11.35;;;;;;;;;;5088862;28;20514;-61
2021/12/27 01:17:37;;;;;;;18.60;10.88;;;;;;;;;;5026302;28;20057;-60
2021/12/27 01:20:04;;;;;;;20.33;11.10;;;;;;;;;;5028503;28;20037;-61
2021/12/27 01:22:30;;;;;;;20.92;11.65;;;;;;;;;;5025230;28;20530;-62
2021/12/27 01:24:56;;;;;;;20.00;11.57;;;;;;;;;;5028851;28;20041;-61
2021/12/27 01:27:22;;;;;;;24.35;12.07;;;;;;;;;;5024840;28;20086;-60
2021/12/27 01:29:48;;;;;;;20.10;10.98;;;;;;;;;;5028293;28;20524;-60
2021/12/27 01:32:14;;;;;;;21.55;12.38;;;;;;;;;;5027084;28;20033;-62
2021/12/27 01:34:40;;;;;;;21.30;11.40;;;;;;;;;;5028619;28;20049;-59
2021/12/27 01:37:06;;;;;;;18.95;11.38;;;;;;;;;;5022312;28;20415;-61
2021/12/27 01:39:32;;;;;;;18.40;11.00;;;;;;;;;;5008887;28;20104;-62
2021/12/27 01:41:59;;;;;;;19.77;11.95;;;;;;;;;;5026243;28;20550;-60
2021/12/27 01:44:25;;;;;;;21.23;11.88;;;;;;;;;;5011552;28;20120;-61
2021/12/27 01:46:53;;;;;;;20.67;11.52;;;;;;;;;;5027008;28;20045;-60
2021/12/27 01:49:19;;;;;;;21.02;11.57;;;;;;;;;;5061316;28;20414;-60
2021/12/27 01:51:45;;;;;;;18.10;10.68;;;;;;;;;;5088455;28;20044;-59
2021/12/27 01:54:11;;;;;;;21.80;12.13;;;;;;;;;;5087847;28;20115;-61
2021/12/27 01:56:37;;;;;;;19.45;11.52;;;;;;;;;;5088553;28;20043;-62
2021/12/27 01:59:03;;;;;;;22.27;11.93;;;;;;;;;;5082912;28;20048;-60
2021/12/27 02:01:29;;;;;;;20.15;11.05;;;;;;;;;;5086517;28;20082;-60
2021/12/27 02:03:56;;;;;;;21.65;11.68;;;;;;;;;;5081056;28;20074;-61
2021/12/27 02:06:25;;;;;;;19.83;11.45;;;;;;;;;;5090347;28;20043;-60
2021/12/27 02:08:51;;;;;;;22.65;11.90;;;;;;;;;;5088074;28;20484;-60
2021/12/27 02:11:19;;;;;;;21.77;12.10;;;;;;;;;;5089566;28;20036;-62
2021/12/27 02:13:46;;;;;;;22.15;12.20;;;;;;;;;;5090174;28;20528;-60
2021/12/27 02:16:16;;;;;;;21.27;12.18;;;;;;;;;;5089674;28;20040;-60
2021/12/27 02:18:44;;;;;;;22.55;12.07;;;;;;;;;;5084863;28;20044;-60
2021/12/27 02:21:10;;;;;;;22.00;12.30;;;;;;;;;;5089167;28;20486;-60
2021/12/27 02:23:40;;;;;;;21.75;11.90;;;;;;;;;;5089609;28;20071;-60
2021/12/27 02:26:06;;;;;;;22.15;12.73;;;;;;;;;;5090998;28;20067;-61
2021/12/27 02:28:32;;;;;;;21.45;11.93;;;;;;;;;;5086944;28;20051;-61
2021/12/27 02:30:58;;;;;;;21.27;12.60;;;;;;;;;;5088730;28;20036;-61
2021/12/27 02:33:24;;;;;;;22.88;11.85;;;;;;;;;;5087669;28;20039;-59
2021/12/27 02:35:57;;;;;;;20.65;12.13;;;;;;;;;;5089906;28;20036;-60
2021/12/27 02:38:23;;;;;;;;;;;;;;;;;;5088761;28;20040;-62
2021/12/27 02:40:52;;;;;;;21.00;11.45;;;;;;;;;;5090479;28;19973;-61
2021/12/27 02:43:19;;;;;;;20.25;11.60;;;;;;;;;;5088762;28;20137;-62
2021/12/27 02:45:45;;;;;;;23.17;12.70;;;;;;;;;;5090155;28;20487;-60
2021/12/27 02:48:12;;;;;;;22.52;13.00;;;;;;;;;;5088767;28;20043;-61
2021/12/27 02:50:39;;;;;;;22.42;12.70;;;;;;;;;;5089272;28;20081;-60
2021/12/27 02:53:05;;;;;;;21.10;12.57;;;;;;;;;;5089071;28;20474;-61
2021/12/27 02:55:32;;;;;;;23.30;12.55;;;;;;;;;;5087923;28;20539;-60
2021/12/27 02:57:58;;;;;;;22.17;12.77;;;;;;;;;;5089163;28;20039;-60
2021/12/27 03:00:28;;;;;;;23.17;12.15;;;;;;;;;;5091470;28;20486;-61
2021/12/27 03:02:55;;;;;;;22.67;12.55;;;;;;;;;;5084336;28;20032;-61
2021/12/27 03:05:22;;;;;;;21.05;12.32;;;;;;;;;;5089334;28;20048;-60
2021/12/27 03:07:49;;;;;;;19.80;11.63;;;;;;;;;;5089700;28;20066;-62
2021/12/27 03:10:18;;;;;;;21.65;12.90;;;;;;;;;;5088783;28;20089;-60
2021/12/27 03:12:45;;;;;;;23.15;12.65;;;;;;;;;;5090325;28;20461;-60
2021/12/27 03:15:12;;;;;;;21.30;12.13;;;;;;;;;;5088606;28;20425;-61
2021/12/27 03:17:38;;;;;;;25.30;12.95;;;;;;;;;;5090378;28;20203;-59
2021/12/27 03:20:05;;;;;;;22.42;12.60;;;;;;;;;;5089006;28;20040;-60
2021/12/27 03:22:32;;;;;;;22.40;13.05;;;;;;;;;;5088389;28;20050;-61
2021/12/27 03:24:58;;;;;;;20.48;12.57;;;;;;;;;;5089552;28;20114;-60
2021/12/27 03:27:24;;;;;;;20.77;12.60;;;;;;;;;;5088351;28;20040;-61
2021/12/27 03:29:50;;;;;;;21.38;12.73;;;;;;;;;;5082484;28;20032;-59
2021/12/27 03:32:17;;;;;;;21.40;12.93;;;;;;;;;;5086480;28;20547;-60
2021/12/27 03:34:56;;;;;;;23.38;13.63;;;;;;;;;;5082800;28;20051;-60
2021/12/27 03:37:23;;;;;;;25.20;12.70;;;;;;;;;;5089704;28;20050;-60
2021/12/27 03:39:50;;;;;;;22.38;12.32;;;;;;;;;;5087745;28;20060;-60
2021/12/27 03:42:16;;;;;;;23.48;13.55;;;;;;;;;;5086282;28;20075;-61
2021/12/27 03:44:43;;;;;;;23.85;13.13;;;;;;;;;;5088873;28;20431;-60
2021/12/27 03:47:10;;;;;;;22.70;13.30;;;;;;;;;;5087057;28;20131;-61
2021/12/27 03:49:36;;;;;;;21.77;12.48;;;;;;;;;;5080496;28;20119;-60
2021/12/27 03:52:02;;;;;;;26.20;13.43;;;;;;;;;;5080285;28;20055;-61
2021/12/27 03:54:28;;;;;;;24.10;12.95;;;;;;;;;;5082323;28;20039;-60
2021/12/27 03:56:54;;;;;;;22.83;13.93;;;;;;;;;;5090956;28;20498;-60
2021/12/27 03:59:36;;;;;;;22.65;13.15;;;;;;;;;;5089856;28;20032;-61
2021/12/27 04:02:03;;;;;;;22.83;12.70;;;;;;;;;;5090489;28;20490;-60
2021/12/27 04:04:29;;;;;;;23.90;13.77;;;;;;;;;;5087627;28;20559;-61
2021/12/27 04:06:55;;;;;;;22.80;12.73;;;;;;;;;;5091447;28;20070;-60
2021/12/27 04:09:21;;;;;;;21.63;12.95;;;;;;;;;;5092703;28;20040;-61
2021/12/27 04:11:47;;;;;;;26.48;13.10;;;;;;;;;;5093046;28;20064;-61
2021/12/27 04:14:13;;;;;;;24.67;12.73;;;;;;;;;;5092770;28;20149;-60
2021/12/27 04:16:39;;;;;;;22.15;12.38;;;;;;;;;;5085251;28;20051;-60
2021/12/27 04:19:05;;;;;;;23.92;13.13;;;;;;;;;;5093003;28;20543;-61
2021/12/27 04:21:32;;;;;;;26.20;14.35;;;;;;;;;;5092969;28;20477;-60
2021/12/27 04:23:58;;;;;;;25.58;13.07;;;;;;;;;;5091230;28;20039;-61
2021/12/27 04:26:24;;;;;;;21.17;13.25;;;;;;;;;;5092706;28;20402;-62
2021/12/27 04:28:50;;;;;;;23.27;13.55;;;;;;;;;;5091501;28;20044;-60
2021/12/27 04:31:16;;;;;;;23.70;13.10;;;;;;;;;;5091717;28;20036;-62
2021/12/27 04:33:42;;;;;;;23.00;13.65;;;;;;;;;;5091820;28;20546;-61
2021/12/27 04:36:09;;;;;;;25.80;13.48;;;;;;;;;;5091831;28;20032;-62
2021/12/27 04:38:35;;;;;;;23.60;14.00;;;;;;;;;;5092371;28;20039;-59
2021/12/27 04:41:02;;;;;;;23.52;13.65;;;;;;;;;;5092369;28;20044;-60
2021/12/27 04:43:28;;;;;;;23.70;13.30;;;;;;;;;;5091342;28;20123;-59
2021/12/27 04:45:54;;;;;;;22.75;13.15;;;;;;;;;;5089148;28;20046;-62
2021/12/27 04:48:21;;;;;;;24.70;13.77;;;;;;;;;;5091302;28;20127;-60
2021/12/27 04:50:47;;;;;;;25.48;13.52;;;;;;;;;;5092694;28;20097;-61
2021/12/27 04:53:13;;;;;;;25.10;13.38;;;;;;;;;;5090840;28;20035;-61
2021/12/27 04:55:39;;;;;;;22.52;13.77;;;;;;;;;;5092989;28;20131;-60
2021/12/27 04:58:08;;;;;;;22.38;13.32;;;;;;;;;;5090541;28;20426;-61
2021/12/27 05:00:34;;;;;;;25.15;13.55;;;;;;;;;;5089778;28;20575;-60
2021/12/27 05:03:00;;;;;;;24.63;14.07;;;;;;;;;;5089772;28;20036;-62
2021/12/27 05:05:27;;;;;;;23.55;12.98;;;;;;;;;;5087936;28;20043;-59
2021/12/27 05:07:53;;;;;;;23.13;13.57;;;;;;;;;;5090344;28;20040;-60
2021/12/27 05:10:19;;;;;;;22.73;13.35;;;;;;;;;;5092757;28;20039;-61
2021/12/27 05:12:45;;;;;;;22.70;13.57;;;;;;;;;;5090561;28;20069;-60
2021/12/27 05:15:11;;;;;;;23.40;13.05;;;;;;;;;;5087419;28;20056;-60
2021/12/27 05:17:38;;;;;;;25.50;14.73;;;;;;;;;;5086211;28;20044;-59
2021/12/27 05:20:05;;;;;;;23.02;13.88;;;;;;;;;;5086203;28;20040;-62
2021/12/27 05:22:32;;;;;;;21.77;13.40;;;;;;;;;;5092025;28;20473;-62
2021/12/27 05:24:58;;;;;;;24.98;14.65;;;;;;;;;;5090798;28;20036;-59
2021/12/27 05:27:24;;;;;;;23.60;13.55;;;;;;;;;;5091711;28;20483;-61
2021/12/27 05:29:50;;;;;;;22.00;13.02;;;;;;;;;;5088564;28;20503;-60
2021/12/27 05:32:16;;;;;;;23.58;13.45;;;;;;;;;;5090902;28;20127;-61
2021/12/27 05:34:42;;;;;;;25.15;14.13;;;;;;;;;;5088931;28;20032;-61
2021/12/27 05:37:09;;;;;;;27.73;13.98;;;;;;;;;;5088962;28;20032;-61
2021/12/27 05:39:35;;;;;;;23.33;13.60;;;;;;;;;;5089718;28;20044;-59
2021/12/27 05:42:02;;;;;;;24.58;14.40;;;;;;;;;;5089760;28;20229;-62
2021/12/27 05:44:28;;;;;;;24.17;13.80;;;;;;;;;;5091402;28;20413;-62
2021/12/27 05:46:54;;;;;;;27.55;15.00;;;;;;;;;;5087290;28;20118;-60
2021/12/27 05:49:21;;;;;;;23.80;13.63;;;;;;;;;;5089437;28;20044;-60
2021/12/27 05:51:47;;;;;;;27.30;14.30;;;;;;;;;;5083593;28;20035;-62
2021/12/27 05:54:14;;;;;;;27.13;14.05;;;;;;;;;;5079150;28;20075;-60
2021/12/27 05:56:41;;;;;;;26.15;13.57;;;;;;;;;;5085468;28;20047;-60
2021/12/27 05:59:07;;;;;;;25.48;14.85;;;;;;;;;;5081892;28;20036;-61
2021/12/27 06:01:33;;;;;;;26.38;14.68;;;;;;;;;;5089484;28;20043;-60
2021/12/27 06:03:59;;;;;;;24.70;13.63;;;;;;;;;;5090696;28;20497;-61
2021/12/27 06:06:26;;;;;;;27.25;14.48;;;;;;;;;;5089534;28;20044;-62
2021/12/27 06:08:53;;;;;;;24.83;13.68;;;;;;;;;;5089819;28;20566;-61
2021/12/27 06:11:19;;;;;;;25.13;13.73;;;;;;;;;;5089903;28;20130;-61
2021/12/27 06:13:46;;;;;;;25.98;13.70;;;;;;;;;;5087166;28;20092;-59
2021/12/27 06:16:12;;;;;;;24.38;14.25;;;;;;;;;;5087825;28;20055;-61
2021/12/27 06:18:38;;;;;;;27.52;14.73;;;;;;;;;;5089021;28;20131;-60
2021/12/27 06:21:05;;;;;;;24.90;14.73;;;;;;;;;;5091059;28;20515;-61
2021/12/27 06:23:34;;;;;;;28.50;14.75;;;;;;;;;;5089442;28;20552;-59
2021/12/27 06:26:00;;;;;;;29.75;15.02;;;;;;;;;;5091035;28;20475;-60
2021/12/27 06:28:27;;;;;;;28.80;15.13;;;;;;;;;;5087830;28;20043;-63
2021/12/27 06:30:53;;;;;;;30.38;15.05;;;;;;;;;;5086837;28;20093;-61
2021/12/27 06:33:20;;;;;;;31.85;16.27;;;;;;;;;;5090675;28;20032;-61
2021/12/27 06:35:46;;;;;;;27.67;14.70;;;;;;;;;;5088167;28;20040;-62
2021/12/27 06:38:12;;;;;;;29.33;14.98;;;;;;;;;;5091190;28;20130;-61
2021/12/27 06:40:38;;;;;;;30.15;14.68;;;;;;;;;;5089357;28;20130;-60
2021/12/27 06:43:04;;;;;;;30.55;14.90;;;;;;;;;;5090708;28;20070;-61
2021/12/27 06:45:30;;;;;;;27.35;14.13;;;;;;;;;;5090387;28;20072;-61
2021/12/27 06:47:56;;;;;;;29.65;14.77;;;;;;;;;;5090330;28;20040;-60
2021/12/27 06:50:23;;;;;;;30.17;15.18;;;;;;;;;;5089710;28;20107;-60
2021/12/27 06:52:49;;;;;;;28.45;15.18;;;;;;;;;;5089476;28;20450;-62
2021/12/27 06:55:16;;;;;;;34.25;15.02;;;;;;;;;;5089689;28;20036;-61
2021/12/27 06:57:42;;;;;;;32.08;14.57;;;;;;;;;;5088762;28;20032;-61
2021/12/27 07:00:11;;;;;;;34.00;14.93;;;;;;;;;;5089584;28;20032;-62
2021/12/27 07:02:37;;;;;;;36.83;15.13;;;;;;;;;;5090142;28;20096;-62
2021/12/27 07:05:03;;;;;;;30.73;14.00;;;;;;;;;;5090341;28;20414;-60
2021/12/27 07:07:29;;;;;;;35.33;15.30;;;;;;;;;;5090305;28;20148;-62
2021/12/27 07:09:56;;;;;;;39.67;15.45;;;;;;;;;;5089760;28;20128;-61
2021/12/27 07:12:22;;;;;;;35.45;16.40;;;;;;;;;;5080033;28;20041;-61
2021/12/27 07:14:48;;;;;;;39.25;15.60;;;;;;;;;;5090061;28;20048;-62
2021/12/27 07:17:15;;;;;;;35.40;14.48;;;;;;;;;;5089922;28;20050;-60
2021/12/27 07:19:41;;;;;;;41.38;15.50;;;;;;;;;;5092059;28;20073;-60
2021/12/27 07:22:07;;;;;;;38.42;15.93;;;;;;;;;;5089249;28;20086;-61
2021/12/27 07:24:33;;;;;;;37.33;14.70;;;;;;;;;;5089622;28;20387;-62
2021/12/27 07:27:00;;;;;;;40.45;15.48;;;;;;;;;;5091743;28;20063;-60
2021/12/27 07:29:26;;;;;;;36.92;15.50;;;;;;;;;;5093652;28;20055;-61
2021/12/27 07:31:52;;;;;;;43.53;15.73;;;;;;;;;;5094313;28;20555;-60
2021/12/27 07:34:19;;;;;;;37.28;15.52;;;;;;;;;;5093566;28;20059;-62
2021/12/27 07:36:48;;;;;;;45.10;16.45;;;;;;;;;;5094247;28;20047;-61
2021/12/27 07:39:15;;;;;;;39.30;14.88;;;;;;;;;;5093742;28;20464;-60
2021/12/27 07:41:41;;;;;;;47.60;15.52;;;;;;;;;;5092177;28;20039;-61
2021/12/27 07:44:07;;;;;;;49.65;17.13;;;;;;;;;;5093914;28;20171;-60
2021/12/27 07:46:35;;;;;;;36.63;15.75;;;;;;;;;;5092605;28;20040;-61
2021/12/27 07:49:01;;;;;;;39.47;16.30;;;;;;;;;;5094027;28;20067;-62
2021/12/27 07:51:27;;;;;;;43.80;16.02;;;;;;;;;;5093626;28;20505;-61
2021/12/27 07:53:53;;;;;;;42.22;15.90;;;;;;;;;;5093576;28;20032;-61
2021/12/27 07:56:19;;;;;;;37.33;16.67;;;;;;;;;;5094186;28;20039;-62
2021/12/27 07:58:45;;;;;;;45.42;17.33;;;;;;;;;;5094377;28;20066;-61
2021/12/27 08:01:11;;;;;;;38.45;15.45;;;;;;;;;;5094259;28;20459;-60
2021/12/27 08:03:38;;;;;;;43.55;14.93;;;;;;;;;;5094046;28;20122;-62
2021/12/27 08:06:04;;;;;;;45.55;16.23;;;;;;;;;;5094121;28;20513;-62
2021/12/27 08:08:30;;;;;;;39.58;16.10;;;;;;;;;;5093927;28;20493;-62
2021/12/27 08:10:56;;;;;;;42.50;13.77;;;;;;;;;;5093894;28;20410;-62
2021/12/27 08:13:22;;;;;;;44.25;15.55;;;;;;;;;;5093927;28;20042;-61
2021/12/27 08:15:48;;;;;;;33.95;14.32;;;;;;;;;;5092574;28;20516;-60
2021/12/27 08:18:14;;;;;;;41.88;16.02;;;;;;;;;;5092522;28;20040;-61
2021/12/27 08:20:43;;;;;;;35.13;15.32;;;;;;;;;;5093674;28;20089;-62
2021/12/27 08:23:09;;;;;;;38.38;15.35;;;;;;;;;;5093537;28;20091;-60
2021/12/27 08:25:35;;;;;;;32.60;15.55;;;;;;;;;;5093889;28;20032;-61
2021/12/27 08:28:02;;;;;;;36.88;14.90;;;;;;;;;;5093645;28;20115;-60
2021/12/27 08:30:28;;;;;;;40.03;15.75;;;;;;;;;;5093791;28;20472;-61
2021/12/27 08:32:56;;;;;;;33.05;15.15;;;;;;;;;;5093435;28;20036;-61
2021/12/27 08:35:23;;;;;;;37.65;15.25;;;;;;;;;;5092314;28;20103;-59
2021/12/27 08:37:49;;;;;;;31.48;14.70;;;;;;;;;;5092717;28;20552;-60
2021/12/27 08:40:15;;;;;;;42.05;16.65;;;;;;;;;;5093438;28;20397;-60
2021/12/27 08:42:41;;;;;;;35.38;15.70;;;;;;;;;;5093255;28;20093;-61
2021/12/27 08:45:07;;;;;;;40.70;14.98;;;;;;;;;;5093399;28;20036;-63
2021/12/27 08:47:33;;;;;;;54.67;16.35;;;;;;;;;;5093428;28;20514;-61
2021/12/27 08:50:00;;;;;;;63.20;17.15;;;;;;;;;;5093070;28;20040;-61
2021/12/27 08:52:26;;;;;;;47.15;16.00;;;;;;;;;;5093049;28;20040;-62
2021/12/27 08:54:53;;;;;;;52.95;16.48;;;;;;;;;;5093207;28;20398;-63
2021/12/27 08:57:19;;;;;;;53.67;15.73;;;;;;;;;;5093429;28;20119;-60
2021/12/27 08:59:45;;;;;;;52.28;16.23;;;;;;;;;;5091682;28;20447;-60
2021/12/27 09:02:12;;;;;;;57.95;14.75;;;;;;;;;;5088862;28;20060;-61
2021/12/27 09:04:38;;;;;;;51.65;16.05;;;;;;;;;;5090560;28;20143;-60
2021/12/27 09:07:04;;;;;;;48.80;17.20;;;;;;;;;;5092184;28;20093;-62
2021/12/27 09:09:31;;;;;;;64.55;17.30;;;;;;;;;;5091033;28;20044;-62
2021/12/27 09:11:57;;;;;;;54.75;16.67;;;;;;;;;;5092353;28;20462;-61
2021/12/27 09:14:23;;;;;;;79.43;17.45;;;;;;;;;;5090685;28;20798;-62
2021/12/27 09:16:50;;;;;;;54.95;16.60;;;;;;;;;;5092642;28;20071;-61
2021/12/27 09:19:17;;;;;;;44.65;16.33;;;;;;;;;;5092086;28;20406;-62
2021/12/27 09:21:43;;;;;;;79.70;16.13;;;;;;;;;;5092249;28;20074;-60
2021/12/27 09:24:09;;;;;;;62.78;17.83;;;;;;;;;;5092078;28;20096;-61
2021/12/27 09:26:35;;;;;;;71.15;16.60;;;;;;;;;;5091849;28;20040;-59
2021/12/27 09:29:01;;;;;;;55.50;16.45;;;;;;;;;;5091506;28;20490;-63
2021/12/27 09:31:28;;;;;;;63.85;16.75;;;;;;;;;;5091194;28;20075;-62
2021/12/27 09:33:54;;;;;;;58.05;16.80;;;;;;;;;;5091612;28;20050;-61
2021/12/27 09:36:20;;;;;;;46.97;16.42;;;;;;;;;;5091135;28;20028;-62
2021/12/27 09:38:46;;;;;;;45.92;16.02;;;;;;;;;;5090430;28;20442;-62
2021/12/27 09:41:14;;;;;;;52.13;15.70;;;;;;;;;;5091771;28;20508;-61
2021/12/27 09:43:40;;;;;;;55.33;17.42;;;;;;;;;;5092317;28;20044;-61
2021/12/27 09:46:06;;;;;;;54.00;15.77;;;;;;;;;;5092370;28;20048;-62
2021/12/27 09:48:34;;;;;;;48.83;17.60;;;;;;;;;;5091927;28;20089;-60
2021/12/27 09:51:00;;;;;;;61.83;17.52;;;;;;;;;;5092038;28;20047;-61
2021/12/27 09:53:26;;;;;;;49.42;17.02;;;;;;;;;;5091240;28;20433;-63
2021/12/27 09:55:52;;;;;;;65.00;18.75;;;;;;;;;;5092090;28;20028;-61
2021/12/27 09:58:19;;;;;;;61.95;16.35;;;;;;;;;;5091657;28;20039;-62
2021/12/27 10:00:46;;;;;;;61.95;17.00;;;;;;;;;;5085270;28;20509;-60
2021/12/27 10:03:12;;;;;;;64.93;17.15;;;;;;;;;;5090021;28;20063;-62
2021/12/27 10:05:38;;;;;;;72.95;16.58;;;;;;;;;;5088876;28;20044;-61
2021/12/27 10:08:05;;;;;;;44.75;17.25;;;;;;;;;;5089826;28;20044;-60
2021/12/27 10:10:32;;;;;;;75.28;21.85;;;;;;;;;;5090876;28;20075;-62
2021/12/27 10:12:58;;;;;;;73.53;19.27;;;;;;;;;;5090710;28;20040;-62
2021/12/27 10:15:33;;;;;;;66.93;17.85;;;;;;;;;;5089312;28;20414;-61
2021/12/27 10:18:07;;;;;;;59.85;17.70;;;;;;;;;;5090815;28;20047;-62
2021/12/27 10:20:33;;;;;;;69.65;19.95;;;;;;;;;;5090429;28;20036;-62
2021/12/27 10:22:59;;;;;;;57.28;17.55;;;;;;;;;;5090493;28;20036;-60
2021/12/27 10:25:29;;;;;;;71.10;20.70;;;;;;;;;;5090551;28;20051;-61
2021/12/27 10:27:56;;;;;;;79.78;22.08;;;;;;;;;;5091243;28;20496;-62
2021/12/27 10:30:23;;;;;;;62.97;18.45;;;;;;;;;;5090242;28;20447;-63
2021/12/27 10:33:08;;;;;;;57.80;21.40;;;;;;;;;;5090995;28;20039;-61
2021/12/27 10:35:36;;;;;;;73.65;20.98;;;;;;;;;;5090384;28;20040;-61
2021/12/27 10:38:24;;;;;;;71.68;19.50;;;;;;;;;;5090994;28;20063;-62
2021/12/27 10:40:57;;;;;;;61.70;17.15;;;;;;;;;;5090831;28;20035;-62
2021/12/27 10:43:35;;;;;;;68.70;20.13;;;;;;;;;;5090985;28;20098;-62
2021/12/27 10:46:06;;;;;;;63.35;26.65;;;;;;;;;;5090383;28;20032;-60
2021/12/27 10:48:33;;;;;;;49.60;18.13;;;;;;;;;;5090567;28;20083;-60
2021/12/27 10:50:59;;;;;;;55.50;18.63;;;;;;;;;;5090644;28;20040;-63
2021/12/27 10:53:25;;;;;;;67.95;20.92;;;;;;;;;;5090667;28;20046;-62
2021/12/27 10:55:51;;;;;;;62.42;16.77;;;;;;;;;;5090398;28;20490;-61
2021/12/27 10:58:23;;;;;;;54.35;16.83;;;;;;;;;;5090600;28;20035;-61
2021/12/27 11:00:55;;;;;;;74.25;16.95;;;;;;;;;;5090325;28;20398;-61
2021/12/27 11:03:27;;;;;;;42.25;17.02;;;;;;;;;;5090456;28;20090;-60
2021/12/27 11:05:53;;;;;;;65.78;18.17;;;;;;;;;;5089976;28;20089;-60
2021/12/27 11:08:20;;;;;;;53.97;17.30;;;;;;;;;;5090465;28;20119;-61
2021/12/27 11:10:46;;;;;;;56.45;18.92;;;;;;;;;;5090355;28;20089;-62
2021/12/27 11:13:12;;;;;;;56.85;17.48;;;;;;;;;;5090441;28;20513;-61
2021/12/27 11:15:40;;;;;;;64.05;18.25;;;;;;;;;;5090082;28;20056;-61
2021/12/27 11:18:07;;;;;;;61.95;17.67;;;;;;;;;;5089956;28;20571;-63
2021/12/27 11:20:33;;;;;;;52.25;17.60;;;;;;;;;;5087490;28;20028;-62
2021/12/27 11:23:00;;;;;;;78.32;18.38;;;;;;;;;;5090465;28;20039;-61
2021/12/27 11:25:29;;;;;;;63.30;17.48;;;;;;;;;;5090540;28;20068;-60
2021/12/27 11:27:55;;;;;;;53.72;18.15;;;;;;;;;;5089994;28;20040;-61
2021/12/27 11:30:23;;;;;;;44.63;16.60;;;;;;;;;;5088467;28;20130;-62
2021/12/27 11:32:59;;;;;;;65.95;18.30;;;;;;;;;;5089848;28;20158;-62
2021/12/27 11:35:25;;;;;;;53.10;17.10;;;;;;;;;;5090482;28;20551;-62
2021/12/27 11:37:52;;;;;;;68.45;17.73;;;;;;;;;;5088843;28;20394;-61
2021/12/27 11:40:18;;;;;;;61.35;18.13;;;;;;;;;;5089869;28;20044;-62
2021/12/27 11:43:01;;;;;;;59.92;18.45;;;;;;;;;;5089023;28;20044;-61
2021/12/27 11:45:36;;;;;;;63.63;17.77;;;;;;;;;;5086636;28;20047;-61
2021/12/27 11:48:06;;;;;;;56.17;17.67;;;;;;;;;;5088331;28;20078;-60
2021/12/27 11:50:32;;;;;;;59.85;19.13;;;;;;;;;;5089349;28;20112;-60
2021/12/27 11:53:06;;;;;;;51.35;17.95;;;;;;;;;;5089994;28;20115;-62
2021/12/27 11:55:39;;;;;;;59.13;17.90;;;;;;;;;;5089954;28;20040;-61
2021/12/27 11:58:05;;;;;;;57.38;18.08;;;;;;;;;;5087803;28;20435;-61
2021/12/27 12:00:32;;;;;;;60.30;18.45;;;;;;;;;;5087690;28;20115;-60
2021/12/27 12:03:03;;;;;;;60.05;19.20;;;;;;;;;;5088882;28;20111;-60
2021/12/27 12:05:43;;;;;;;58.87;18.90;;;;;;;;;;5088099;28;20047;-60
2021/12/27 12:08:10;;;;;;;52.78;18.38;;;;;;;;;;5088864;28;20386;-61
2021/12/27 12:10:37;;;;;;;49.83;18.23;;;;;;;;;;5089048;28;20503;-62
2021/12/27 12:13:47;;;;;;;50.92;19.30;;;3.80;99.90;;;;;;5088827;28;20054;-61
2021/12/27 12:16:14;;;;;;;48.47;18.52;;;;;;;;;;5124390;27;20044;-61
2021/12/27 12:19:03;;;;;;;51.90;19.35;;;;;;;;;;5092968;28;20090;-60
2021/12/27 12:21:29;;;;;;;50.53;19.67;;;;;;;;;;5093359;28;20055;-60
2021/12/27 12:23:57;;;;;;;56.72;19.92;;;;;;;;;;5092629;28;20044;-60
2021/12/27 12:26:23;;;;;;;57.72;20.20;;;;;;;;;;5092927;28;20521;-61
2021/12/27 12:28:58;;;;;;;60.80;19.75;;;;;;;;;;5093002;28;20028;-61
2021/12/27 12:31:31;;;;;;;55.45;20.85;;;;;;;;;;5092807;28;20036;-62
2021/12/27 12:34:11;;;;;;;54.55;19.70;;;;;;;;;;5091572;28;20106;-61
2021/12/27 12:36:46;;;;;;;52.85;20.98;;;;;;;;;;5092243;28;20260;-61
2021/12/27 12:39:12;;;;;;;45.00;18.85;;;;;;;;;;5092771;28;20083;-60
2021/12/27 12:41:38;;;;;;;52.08;19.50;;;;;;;;;;5092380;28;20062;-60
2021/12/27 12:44:04;;;;;;;45.20;17.77;;;;;;;;;;5092880;28;20044;-60
2021/12/27 12:46:43;;;;;;;47.78;18.40;;;;;;;;;;5092857;28;20043;-61
2021/12/27 12:49:14;;;;;;;40.70;17.42;;;;;;;;;;5092598;28;20072;-60
2021/12/27 12:51:40;;;;;;;44.08;19.60;;;;;;;;;;5092416;28;20028;-61
2021/12/27 12:54:32;;;;;;;41.20;17.15;;;;;;;;;;5089870;28;20036;-61
2021/12/27 12:57:01;;;;;;;38.95;17.52;;;;;;;;;;5092377;28;20066;-60
2021/12/27 12:59:31;;;;;;;38.75;17.25;;;;;;;;;;5092266;28;20409;-62
2021/12/27 13:01:59;;;;;;;42.60;17.40;;;;;;;;;;5088789;28;20044;-62
2021/12/27 13:04:38;;;;;;;42.42;16.60;;;;;;;;;;5092315;28;20086;-57
2021/12/27 13:07:04;;;;;;;39.40;17.08;;;;;;;;;;5092288;28;20434;-60
2021/12/27 13:10:02;;;;;;;43.85;17.75;;;;;;;;;;5092072;28;20040;-61
2021/12/27 13:12:29;;;;;;;36.13;15.85;;;;;;;;;;5068938;28;20190;-60
2021/12/27 13:14:56;;;;;;;37.28;17.23;;;;;;;;;;5069402;28;20131;-60
2021/12/27 13:17:23;;;;;;;45.55;17.60;;;;;;;;;;5068718;28;20052;-60
2021/12/27 13:20:09;;;;;;;40.20;16.88;;;;;;;;;;5069661;28;20043;-60
2021/12/27 13:22:51;;;;;;;40.10;16.52;;;;;;;;;;5069161;28;20411;-60
2021/12/27 13:25:31;;;;;;;43.40;16.23;;;;;;;;;;5068841;28;20066;-60
2021/12/27 13:28:24;;;;;;;41.78;16.63;;;;;;;;;;5069155;28;20067;-61
2021/12/27 13:30:52;;;;;;;39.40;16.52;;;;;;;;;;5029127;28;20075;-62
2021/12/27 13:33:19;;;;;;;39.63;17.13;;;;;;;;;;5028830;28;20046;-60
2021/12/27 13:35:47;;;;;;;39.92;16.67;;;;;;;;;;5028841;28;20499;-60
2021/12/27 13:38:17;;;;;;;37.22;15.77;;;;;;;;;;5027798;28;20037;-60
2021/12/27 13:40:44;;;;;;;42.35;17.92;;;;;;;;;;5028844;28;20041;-60
2021/12/27 13:43:10;;;;;;;41.88;17.58;;;;;;;;;;5026898;28;20096;-60
2021/12/27 13:45:41;;;;;;;41.22;17.67;;;;;;;;;;5027652;28;20507;-61
2021/12/27 13:48:09;;;;;;;37.92;15.93;;;;;;;;;;5055813;28;20087;-61
2021/12/27 13:50:35;;;;;;;40.83;17.17;;;;;;;;;;5048084;28;20048;-60
2021/12/27 13:53:09;;;;;;;36.35;15.77;;;;;;;;;;5065110;28;20107;-61
2021/12/27 13:55:35;;;;;;;33.72;16.10;;;;;;;;;;5048687;28;20045;-59
2021/12/27 13:58:19;;;;;;;36.35;15.77;;;;;;;;;;5049001;28;20064;-60
2021/12/27 14:00:47;;;;;;;33.38;15.70;;;;;;;;;;5048330;28;20495;-60
2021/12/27 14:03:28;;;;;;;34.97;15.10;;;;;;;;;;5015437;28;20043;-60
2021/12/27 14:05:55;;;;;;;38.53;15.88;;;;;;;;;;5048898;28;20041;-60
2021/12/27 14:08:23;;;;;;;30.40;16.23;;;;;;;;;;5077978;28;20040;-61
2021/12/27 14:11:09;;;;;;;28.02;14.93;;;;;;;;;;5090235;28;20044;-60
2021/12/27 14:13:47;;;;;;;37.42;14.60;;;;;;;;;;5091098;28;20036;-60
2021/12/27 14:16:18;;;;;;;29.60;14.13;;;;;;;;;;5090484;28;20141;-59
2021/12/27 14:19:19;;;;;;;27.73;13.70;;;;;;;;;;5091036;28;20040;-61
2021/12/27 14:21:59;;;;;;;34.22;17.65;;;;;;;;;;5067892;28;20561;-60
2021/12/27 14:24:38;;;;;;;27.88;13.40;;;;;;;;;;5067235;28;20080;-59
2021/12/27 14:27:05;;;;;;;29.00;14.13;;;;;;;;;;5068034;28;20062;-59
2021/12/27 14:29:32;;;;;;;28.27;13.18;;;;;;;;;;5068435;28;20152;-60